createdAt,value
2022-11-30T00:00:56.444Z,44.10
2022-11-30T00:03:23.966Z,49.00
2022-11-30T00:05:50.725Z,45.03
2022-11-30T00:08:17.725Z,48.13
2022-11-30T00:10:44.768Z,47.67
2022-11-30T00:13:11.343Z,47.55
2022-11-30T00:15:38.035Z,47.30
2022-11-30T00:18:05.090Z,54.22
2022-11-30T00:20:31.899Z,49.17
2022-11-30T00:22:58.478Z,45.55
2022-11-30T00:25:25.569Z,43.85
2022-11-30T00:27:52.467Z,46.50
2022-11-30T00:30:19.020Z,45.15
2022-11-30T00:32:45.514Z,48.40
2022-11-30T00:35:12.254Z,47.97
2022-11-30T00:37:38.805Z,40.80
2022-11-30T00:40:06.331Z,49.45
2022-11-30T00:42:32.908Z,52.65
2022-11-30T00:44:59.432Z,45.22
2022-11-30T00:47:25.934Z,49.58
2022-11-30T00:49:52.462Z,56.65
2022-11-30T00:52:19.006Z,50.75
2022-11-30T00:54:46.083Z,68.95
2022-11-30T00:57:13.022Z,54.25
2022-11-30T00:59:39.561Z,54.20
2022-11-30T01:02:06.155Z,53.90
2022-11-30T01:04:32.776Z,61.83
2022-11-30T01:06:59.390Z,54.17
2022-11-30T01:09:26.004Z,51.28
2022-11-30T01:11:52.621Z,56.22
2022-11-30T01:14:19.204Z,54.50
2022-11-30T01:16:45.748Z,62.80
2022-11-30T01:19:12.278Z,58.28
2022-11-30T01:21:38.904Z,70.40
2022-11-30T01:24:05.952Z,60.20
2022-11-30T01:26:32.548Z,55.35
2022-11-30T01:28:59.112Z,59.58
2022-11-30T01:31:25.766Z,69.70
2022-11-30T01:33:55.093Z,66.35
2022-11-30T01:36:26.417Z,70.38
2022-11-30T01:38:55.520Z,65.88
2022-11-30T01:41:31.144Z,59.95
2022-11-30T01:44:20.126Z,67.10
2022-11-30T01:47:04.887Z,67.97
2022-11-30T01:49:36.032Z,71.97
2022-11-30T01:52:10.997Z,66.82
2022-11-30T01:55:07.280Z,76.75
2022-11-30T01:57:40.914Z,74.53
2022-11-30T02:03:11.228Z,59.40
2022-11-30T02:05:40.161Z,65.93
2022-11-30T02:08:08.787Z,67.85
2022-11-30T02:10:38.780Z,63.08
2022-11-30T02:13:23.805Z,61.53
2022-11-30T02:16:16.742Z,60.63
2022-11-30T02:19:12.824Z,71.65
2022-11-30T02:21:53.729Z,79.25
2022-11-30T02:24:44.743Z,86.15
2022-11-30T02:27:31.634Z,74.75
2022-11-30T02:30:11.704Z,64.05
2022-11-30T02:32:48.615Z,69.22
2022-11-30T02:35:20.445Z,80.93
2022-11-30T02:37:48.785Z,65.05
2022-11-30T02:40:20.437Z,76.13
2022-11-30T02:42:50.442Z,65.38
2022-11-30T02:45:20.525Z,60.90
2022-11-30T02:47:55.589Z,63.28
2022-11-30T02:50:28.353Z,58.80
2022-11-30T02:52:55.737Z,55.17
2022-11-30T02:55:22.716Z,60.85
2022-11-30T02:57:49.358Z,59.40
2022-11-30T03:00:16.744Z,59.60
2022-11-30T03:02:43.339Z,68.75
2022-11-30T03:05:10.692Z,63.35
2022-11-30T03:07:37.316Z,63.25
2022-11-30T03:10:05.064Z,60.88
2022-11-30T03:12:31.627Z,60.78
2022-11-30T03:14:58.132Z,59.60
2022-11-30T03:17:24.758Z,63.22
2022-11-30T03:19:51.803Z,54.20
2022-11-30T03:22:18.328Z,62.13
2022-11-30T03:24:45.041Z,64.32
2022-11-30T03:27:12.413Z,57.80
2022-11-30T03:29:39.361Z,61.10
2022-11-30T03:32:06.219Z,55.85
2022-11-30T03:34:32.756Z,57.38
2022-11-30T03:36:59.445Z,59.97
2022-11-30T03:39:26.154Z,56.60
2022-11-30T03:41:52.765Z,59.20
2022-11-30T03:44:19.611Z,59.25
2022-11-30T03:46:46.161Z,68.53
2022-11-30T03:49:12.894Z,58.35
2022-11-30T03:51:39.520Z,56.13
2022-11-30T03:54:06.133Z,57.13
2022-11-30T03:56:32.715Z,58.42
2022-11-30T03:58:59.225Z,61.63
2022-11-30T04:01:26.640Z,65.70
2022-11-30T04:03:53.502Z,69.70
2022-11-30T04:06:21.749Z,59.25
2022-11-30T04:08:48.477Z,66.00
2022-11-30T04:11:15.491Z,62.80
2022-11-30T04:13:42.717Z,66.95
2022-11-30T04:16:09.744Z,65.90
2022-11-30T04:18:37.397Z,64.50
2022-11-30T04:21:05.179Z,66.45
2022-11-30T04:23:34.601Z,63.35
2022-11-30T04:26:04.291Z,68.85
2022-11-30T04:28:31.294Z,62.97
2022-11-30T04:31:00.405Z,63.88
2022-11-30T04:33:28.358Z,62.17
2022-11-30T04:35:56.912Z,67.30
2022-11-30T04:38:24.654Z,68.75
2022-11-30T04:40:51.666Z,66.97
2022-11-30T04:43:19.144Z,65.43
2022-11-30T04:45:46.130Z,63.67
2022-11-30T04:48:13.336Z,65.85
2022-11-30T04:50:39.983Z,63.85
2022-11-30T04:53:07.691Z,64.55
2022-11-30T04:55:34.436Z,68.88
2022-11-30T04:58:01.028Z,71.32
2022-11-30T05:00:27.741Z,65.35
2022-11-30T05:02:56.532Z,66.60
2022-11-30T05:05:23.746Z,62.95
2022-11-30T05:07:58.054Z,67.28
2022-11-30T05:10:25.874Z,67.50
2022-11-30T05:12:52.492Z,73.05
2022-11-30T05:15:19.579Z,65.57
2022-11-30T05:17:46.548Z,67.43
2022-11-30T05:20:14.083Z,75.97
2022-11-30T05:22:40.758Z,75.32
2022-11-30T05:25:08.009Z,85.32
2022-11-30T05:27:35.348Z,78.47
2022-11-30T05:30:02.230Z,85.25
2022-11-30T05:32:28.835Z,78.95
2022-11-30T05:34:55.767Z,76.30
2022-11-30T05:37:22.881Z,75.35
2022-11-30T05:39:49.747Z,76.18
2022-11-30T05:42:16.439Z,69.43
2022-11-30T05:44:43.481Z,79.97
2022-11-30T05:47:10.496Z,74.97
2022-11-30T05:49:37.099Z,78.90
2022-11-30T05:52:03.803Z,72.10
2022-11-30T05:54:30.352Z,70.65
2022-11-30T05:56:57.022Z,71.88
2022-11-30T05:59:23.751Z,68.05
2022-11-30T06:01:53.714Z,71.65
2022-11-30T06:04:21.719Z,63.70
2022-11-30T06:06:49.520Z,73.68
2022-11-30T06:09:16.240Z,75.68
2022-11-30T06:11:42.910Z,66.88
2022-11-30T06:14:09.571Z,70.60
2022-11-30T06:16:39.126Z,70.45
2022-11-30T06:19:06.193Z,66.50
2022-11-30T06:21:32.810Z,64.57
2022-11-30T06:23:59.316Z,70.45
2022-11-30T06:26:26.180Z,67.22
2022-11-30T06:28:52.695Z,67.43
2022-11-30T06:31:19.277Z,63.95
2022-11-30T06:33:45.803Z,68.28
2022-11-30T06:36:12.536Z,62.47
2022-11-30T06:38:39.521Z,66.78
2022-11-30T06:41:08.736Z,66.05
2022-11-30T06:43:36.973Z,68.60
2022-11-30T06:46:05.228Z,62.60
2022-11-30T06:48:32.512Z,63.83
2022-11-30T06:51:00.464Z,61.90
2022-11-30T06:53:27.968Z,59.20
2022-11-30T06:55:55.073Z,57.28
2022-11-30T06:58:22.087Z,59.53
2022-11-30T07:00:49.481Z,60.67
2022-11-30T07:03:19.386Z,54.10
2022-11-30T07:05:52.528Z,52.55
2022-11-30T07:08:19.877Z,48.15
2022-11-30T07:10:50.917Z,50.53
2022-11-30T07:13:19.726Z,48.65
2022-11-30T07:15:48.917Z,54.85
2022-11-30T07:18:16.567Z,49.60
2022-11-30T07:20:43.638Z,50.55
2022-11-30T07:23:28.796Z,49.50
2022-11-30T07:26:10.571Z,56.97
2022-11-30T07:28:43.079Z,45.78
2022-11-30T07:31:16.672Z,45.05
2022-11-30T07:33:43.817Z,48.35
2022-11-30T07:36:11.193Z,49.88
2022-11-30T07:38:38.499Z,44.40
2022-11-30T07:41:05.474Z,37.80
2022-11-30T07:43:33.049Z,37.97
2022-11-30T07:46:00.444Z,40.67
2022-11-30T07:48:27.755Z,35.00
2022-11-30T07:50:54.634Z,34.42
2022-11-30T07:53:21.214Z,35.10
2022-11-30T07:55:50.544Z,31.98
2022-11-30T07:58:19.334Z,36.65
2022-11-30T08:00:45.850Z,33.78
2022-11-30T08:03:12.357Z,27.70
2022-11-30T08:05:38.876Z,30.73
2022-11-30T08:08:05.465Z,27.10
2022-11-30T08:10:32.124Z,28.20
2022-11-30T08:12:59.259Z,26.35
2022-11-30T08:15:32.135Z,26.52
2022-11-30T08:18:05.236Z,25.48
2022-11-30T08:20:31.872Z,27.00
2022-11-30T08:22:58.812Z,25.20
2022-11-30T08:25:25.393Z,27.08
2022-11-30T08:27:51.919Z,23.38
2022-11-30T08:30:18.628Z,20.23
2022-11-30T08:32:45.148Z,21.42
2022-11-30T08:35:11.816Z,16.52
2022-11-30T08:37:38.846Z,18.70
2022-11-30T08:40:06.285Z,17.10
2022-11-30T08:42:32.838Z,18.15
2022-11-30T08:44:59.561Z,16.35
2022-11-30T08:47:26.665Z,15.68
2022-11-30T08:49:53.293Z,17.52
2022-11-30T08:52:19.999Z,18.98
2022-11-30T08:54:48.078Z,19.15
2022-11-30T08:57:17.563Z,20.27
2022-11-30T08:59:44.487Z,20.77
2022-11-30T09:02:13.439Z,19.98
2022-11-30T09:04:40.002Z,21.88
2022-11-30T09:07:06.706Z,23.50
2022-11-30T09:09:33.354Z,24.52
2022-11-30T09:11:59.993Z,25.33
2022-11-30T09:14:26.811Z,24.85
2022-11-30T09:16:54.113Z,24.98
2022-11-30T09:19:21.521Z,24.38
2022-11-30T09:21:51.876Z,23.00
2022-11-30T09:24:19.690Z,23.15
2022-11-30T09:26:46.305Z,23.27
2022-11-30T09:29:12.950Z,22.73
2022-11-30T09:31:39.599Z,24.95
2022-11-30T09:34:06.162Z,25.35
2022-11-30T09:36:34.049Z,21.90
2022-11-30T09:39:01.114Z,24.50
2022-11-30T09:41:55.082Z,29.98
2022-11-30T09:44:27.913Z,45.42
2022-11-30T09:47:17.688Z,24.27
2022-11-30T09:49:46.402Z,23.92
2022-11-30T09:52:37.324Z,26.45
2022-11-30T09:55:08.800Z,25.52
2022-11-30T09:57:46.977Z,25.50
2022-11-30T10:00:21.717Z,29.10
2022-11-30T10:02:53.832Z,27.08
2022-11-30T10:05:28.796Z,25.50
2022-11-30T10:08:07.450Z,24.13
2022-11-30T10:10:41.866Z,26.83
2022-11-30T10:13:52.248Z,22.95
2022-11-30T10:16:39.327Z,28.33
2022-11-30T10:19:08.842Z,29.15
2022-11-30T10:21:41.344Z,22.27
2022-11-30T10:24:40.481Z,21.90
2022-11-30T10:27:40.751Z,23.55
2022-11-30T10:30:17.003Z,26.80
2022-11-30T10:32:47.219Z,27.20
2022-11-30T10:35:37.116Z,24.65
2022-11-30T10:38:13.585Z,24.38
2022-11-30T10:40:52.792Z,22.98
2022-11-30T10:43:34.053Z,22.63
2022-11-30T10:46:00.704Z,23.75
2022-11-30T10:48:51.655Z,23.10
2022-11-30T10:51:18.281Z,22.55
2022-11-30T10:53:47.274Z,22.08
2022-11-30T10:56:15.220Z,22.17
2022-11-30T10:59:04.737Z,18.55
2022-11-30T11:01:41.124Z,21.75
2022-11-30T11:04:17.200Z,18.40
2022-11-30T11:06:43.894Z,21.88
2022-11-30T11:09:29.772Z,22.95
2022-11-30T11:12:02.700Z,27.27
2022-11-30T11:14:34.871Z,20.60
2022-11-30T11:17:17.678Z,22.00
2022-11-30T11:19:46.280Z,23.40
2022-11-30T11:22:13.018Z,23.65
2022-11-30T11:24:39.708Z,21.90
2022-11-30T11:27:06.455Z,22.70
2022-11-30T11:29:34.956Z,24.85
2022-11-30T11:32:31.605Z,22.02
2022-11-30T11:34:58.372Z,23.98
2022-11-30T11:37:33.996Z,24.50
2022-11-30T11:40:00.761Z,22.92
2022-11-30T11:42:31.375Z,21.52
2022-11-30T11:45:00.042Z,22.33
2022-11-30T11:47:41.064Z,24.13
2022-11-30T11:50:57.766Z,24.25
2022-11-30T11:53:24.950Z,23.60
2022-11-30T11:55:56.291Z,25.58
2022-11-30T11:58:39.647Z,28.63
2022-11-30T12:01:38.785Z,28.27
2022-11-30T12:04:17.985Z,32.70
2022-11-30T12:06:46.592Z,27.08
2022-11-30T12:09:18.187Z,27.23
2022-11-30T12:11:47.609Z,30.35
2022-11-30T12:14:16.866Z,28.23
2022-11-30T12:17:11.563Z,28.38
2022-11-30T12:20:14.406Z,28.48
2022-11-30T12:23:03.183Z,26.02
2022-11-30T12:25:50.142Z,33.53
2022-11-30T12:28:52.365Z,31.38
2022-11-30T12:31:19.048Z,31.35
2022-11-30T12:33:48.889Z,31.13
2022-11-30T12:36:15.500Z,29.95
2022-11-30T12:38:56.261Z,29.90
2022-11-30T12:41:37.477Z,31.42
2022-11-30T12:44:22.588Z,26.95
2022-11-30T12:47:00.585Z,31.23
2022-11-30T12:49:51.056Z,28.83
2022-11-30T12:52:53.379Z,25.33
2022-11-30T12:55:38.271Z,29.35
2022-11-30T12:58:25.642Z,27.02
2022-11-30T13:01:12.256Z,28.55
2022-11-30T13:03:55.643Z,27.80
2022-11-30T13:06:30.106Z,35.53
2022-11-30T13:09:10.399Z,27.33
2022-11-30T13:11:40.182Z,30.65
2022-11-30T13:14:14.704Z,31.85
2022-11-30T13:16:43.344Z,30.63
2022-11-30T13:19:42.855Z,27.63
2022-11-30T13:22:17.424Z,29.08
2022-11-30T13:24:49.903Z,32.63
2022-11-30T13:27:22.996Z,29.17
2022-11-30T13:30:13.875Z,33.72
2022-11-30T13:35:29.958Z,30.88
2022-11-30T13:38:35.812Z,33.05
2022-11-30T13:41:03.299Z,28.38
2022-11-30T13:43:34.520Z,28.77
2022-11-30T13:46:15.359Z,27.77
2022-11-30T13:48:44.167Z,26.80
2022-11-30T13:51:11.645Z,27.52
2022-11-30T13:53:39.516Z,28.20
2022-11-30T13:56:21.244Z,28.30
2022-11-30T13:59:25.543Z,29.48
2022-11-30T14:02:13.079Z,28.80
2022-11-30T14:04:47.747Z,31.80
2022-11-30T14:07:37.754Z,31.35
2022-11-30T14:10:31.456Z,31.88
2022-11-30T14:13:01.205Z,28.90
2022-11-30T14:15:50.884Z,28.67
2022-11-30T14:18:20.950Z,29.17
2022-11-30T14:21:25.215Z,30.55
2022-11-30T14:24:14.113Z,32.17
2022-11-30T14:26:44.728Z,31.58
2022-11-30T14:29:27.633Z,29.23
2022-11-30T14:32:02.099Z,31.00
2022-11-30T14:34:32.215Z,36.78
2022-11-30T14:37:06.044Z,43.13
2022-11-30T14:39:37.043Z,32.50
2022-11-30T14:42:05.420Z,30.88
2022-11-30T14:44:40.959Z,40.70
2022-11-30T14:47:20.382Z,37.97
2022-11-30T14:49:51.864Z,56.65
2022-11-30T14:52:40.198Z,39.95
2022-11-30T14:55:36.022Z,32.53
2022-11-30T14:58:11.819Z,31.02
2022-11-30T15:00:41.128Z,35.45
2022-11-30T15:03:20.037Z,54.50
2022-11-30T15:05:49.806Z,40.55
2022-11-30T15:08:17.238Z,30.83
2022-11-30T15:10:44.086Z,28.80
2022-11-30T15:13:17.503Z,30.92
2022-11-30T15:15:55.694Z,31.33
2022-11-30T15:18:24.571Z,30.98
2022-11-30T15:21:11.552Z,31.90
2022-11-30T15:23:38.538Z,31.45
2022-11-30T15:26:14.221Z,25.50
2022-11-30T15:28:44.927Z,25.92
2022-11-30T15:31:15.437Z,30.13
2022-11-30T15:33:46.043Z,28.48
2022-11-30T15:36:27.790Z,30.08
2022-11-30T15:39:05.368Z,31.23
2022-11-30T15:41:33.932Z,25.17
2022-11-30T15:44:02.321Z,26.13
2022-11-30T15:46:35.125Z,27.75
2022-11-30T15:49:17.104Z,31.50
2022-11-30T15:51:52.022Z,26.80
2022-11-30T15:54:46.599Z,27.65
2022-11-30T15:57:14.332Z,26.95
2022-11-30T15:59:41.924Z,29.55
2022-11-30T16:02:32.845Z,26.38
2022-11-30T16:05:19.730Z,31.35
2022-11-30T16:08:00.497Z,34.05
2022-11-30T16:10:36.805Z,35.22
2022-11-30T16:13:04.881Z,36.78
2022-11-30T16:15:36.579Z,35.53
2022-11-30T16:18:21.954Z,34.78
2022-11-30T16:20:51.493Z,35.63
2022-11-30T16:23:19.512Z,32.28
2022-11-30T16:25:47.367Z,32.88
2022-11-30T16:28:16.169Z,29.63
2022-11-30T16:30:43.707Z,30.52
2022-11-30T16:33:15.380Z,31.05
2022-11-30T16:36:09.486Z,31.15
2022-11-30T16:38:37.505Z,30.83
2022-11-30T16:41:13.826Z,30.80
2022-11-30T16:43:42.350Z,31.33
2022-11-30T16:46:28.279Z,48.75
2022-11-30T16:48:55.652Z,31.50
2022-11-30T16:51:35.281Z,32.13
2022-11-30T16:54:03.878Z,30.90
2022-11-30T16:56:31.712Z,33.63
2022-11-30T16:58:58.877Z,31.10
2022-11-30T17:01:36.033Z,34.03
2022-11-30T17:04:19.287Z,33.22
2022-11-30T17:06:50.599Z,31.75
2022-11-30T17:09:19.451Z,30.42
2022-11-30T17:11:50.503Z,30.80
2022-11-30T17:14:18.025Z,31.88
2022-11-30T17:16:44.980Z,32.40
2022-11-30T17:19:12.939Z,33.03
2022-11-30T17:21:42.651Z,33.03
2022-11-30T17:24:09.615Z,37.65
2022-11-30T17:26:36.503Z,38.30
2022-11-30T17:29:04.189Z,34.42
2022-11-30T17:31:31.390Z,41.55
2022-11-30T17:33:58.819Z,34.40
2022-11-30T17:36:26.977Z,34.65
2022-11-30T17:38:54.526Z,33.13
2022-11-30T17:41:22.525Z,32.88
2022-11-30T17:43:49.733Z,50.47
2022-11-30T17:46:19.294Z,32.88
2022-11-30T17:48:46.610Z,33.40
2022-11-30T17:51:14.104Z,35.53
2022-11-30T17:53:42.959Z,34.00
2022-11-30T17:56:16.196Z,34.58
2022-11-30T17:58:45.342Z,36.63
2022-11-30T18:01:16.183Z,36.78
2022-11-30T18:03:44.496Z,32.83
2022-11-30T18:06:12.146Z,34.20
2022-11-30T18:08:40.105Z,33.53
2022-11-30T18:11:14.273Z,34.20
2022-11-30T18:13:41.312Z,35.13
2022-11-30T18:16:10.544Z,38.92
2022-11-30T18:18:40.525Z,36.30
2022-11-30T18:21:11.580Z,37.70
2022-11-30T18:23:39.207Z,39.78
2022-11-30T18:26:10.332Z,38.67
2022-11-30T18:28:37.534Z,36.90
2022-11-30T18:31:06.518Z,38.92
2022-11-30T18:33:34.481Z,38.70
2022-11-30T18:36:02.232Z,39.97
2022-11-30T18:38:34.218Z,39.88
2022-11-30T18:41:04.304Z,42.65
2022-11-30T18:43:31.917Z,40.70
2022-11-30T18:46:09.315Z,40.53
2022-11-30T18:48:37.715Z,39.33
2022-11-30T18:51:23.522Z,37.28
2022-11-30T18:53:57.984Z,42.03
2022-11-30T18:56:26.640Z,37.60
2022-11-30T18:59:02.677Z,36.25
2022-11-30T19:01:31.825Z,34.60
2022-11-30T19:04:10.643Z,36.67
2022-11-30T19:06:39.807Z,39.13
2022-11-30T19:09:09.417Z,34.85
2022-11-30T19:11:37.448Z,38.05
2022-11-30T19:14:04.832Z,36.72
2022-11-30T19:16:34.352Z,34.72
2022-11-30T19:19:03.413Z,35.50
2022-11-30T19:21:29.974Z,35.60
2022-11-30T19:23:57.200Z,36.83
2022-11-30T19:26:23.819Z,33.17
2022-11-30T19:28:53.532Z,35.78
2022-11-30T19:31:20.744Z,33.33
2022-11-30T19:33:49.800Z,35.15
2022-11-30T19:36:19.264Z,34.17
2022-11-30T19:38:47.988Z,33.17
2022-11-30T19:41:16.625Z,35.67
2022-11-30T19:43:49.416Z,37.15
2022-11-30T19:46:20.146Z,36.28
2022-11-30T19:48:53.097Z,38.72
2022-11-30T19:51:20.297Z,46.83
2022-11-30T19:53:47.265Z,43.30
2022-11-30T19:56:18.091Z,47.20
2022-11-30T19:58:47.360Z,57.05
2022-11-30T20:01:15.687Z,49.40
2022-11-30T20:03:46.513Z,51.80
2022-11-30T20:06:14.784Z,46.42
2022-11-30T20:08:42.953Z,40.45
2022-11-30T20:11:13.006Z,43.40
2022-11-30T20:13:43.265Z,42.58
2022-11-30T20:16:15.742Z,41.33
2022-11-30T20:18:46.222Z,41.30
2022-11-30T20:21:18.422Z,40.80
2022-11-30T20:23:47.082Z,39.50
2022-11-30T20:26:18.112Z,38.97
2022-11-30T20:28:46.413Z,39.60
2022-11-30T20:31:14.814Z,39.45
2022-11-30T20:33:41.622Z,38.97
2022-11-30T20:36:09.514Z,36.50
2022-11-30T20:38:36.998Z,39.30
2022-11-30T20:41:04.158Z,34.33
2022-11-30T20:43:30.856Z,37.40
2022-11-30T20:45:57.572Z,35.58
2022-11-30T20:48:24.181Z,36.75
2022-11-30T20:51:07.587Z,35.78
2022-11-30T20:53:38.771Z,36.80
2022-11-30T20:56:06.198Z,36.85
2022-11-30T20:58:32.960Z,37.55
2022-11-30T21:01:00.776Z,36.20
2022-11-30T21:03:27.977Z,37.38
2022-11-30T21:05:54.836Z,34.35
2022-11-30T21:08:21.597Z,36.33
2022-11-30T21:10:48.520Z,34.75
2022-11-30T21:13:15.349Z,35.38
2022-11-30T21:15:41.928Z,34.88
2022-11-30T21:18:08.552Z,35.20
2022-11-30T21:20:36.390Z,37.22
2022-11-30T21:23:05.163Z,38.85
2022-11-30T21:25:33.421Z,36.45
2022-11-30T21:28:00.341Z,36.72
2022-11-30T21:30:28.424Z,37.15
2022-11-30T21:32:55.081Z,36.30
2022-11-30T21:35:21.836Z,37.10
2022-11-30T21:37:48.371Z,35.92
2022-11-30T21:40:16.313Z,37.38
2022-11-30T21:42:43.971Z,33.72
2022-11-30T21:45:11.235Z,36.97
2022-11-30T21:47:40.652Z,36.75
2022-11-30T21:50:08.545Z,37.17
2022-11-30T21:52:36.252Z,38.67
2022-11-30T21:55:02.955Z,36.95
2022-11-30T21:57:29.686Z,38.13
2022-11-30T21:59:57.817Z,34.95
2022-11-30T22:02:25.509Z,38.97
2022-11-30T22:04:54.404Z,39.80
2022-11-30T22:07:32.030Z,37.33
2022-11-30T22:09:59.740Z,37.45
2022-11-30T22:12:26.705Z,35.90
2022-11-30T22:14:54.352Z,39.30
2022-11-30T22:17:22.246Z,41.85
2022-11-30T22:19:52.357Z,39.88
2022-11-30T22:22:20.457Z,41.63
2022-11-30T22:24:47.025Z,37.38
2022-11-30T22:27:13.516Z,39.92
2022-11-30T22:29:40.092Z,36.88
2022-11-30T22:32:06.624Z,38.03
2022-11-30T22:34:33.245Z,40.22
2022-11-30T22:36:59.969Z,39.70
2022-11-30T22:39:26.511Z,38.95
2022-11-30T22:41:56.062Z,37.55
2022-11-30T22:44:23.768Z,38.40
2022-11-30T22:46:50.390Z,39.97
2022-11-30T22:49:21.277Z,38.15
2022-11-30T22:51:49.330Z,40.38
2022-11-30T22:54:15.893Z,40.22
2022-11-30T22:56:42.485Z,40.95
2022-11-30T22:59:15.207Z,38.05
2022-11-30T23:01:45.871Z,37.67
2022-11-30T23:04:16.748Z,38.60
2022-11-30T23:06:46.733Z,41.22
2022-11-30T23:09:20.328Z,38.88
2022-11-30T23:11:50.419Z,43.35
2022-11-30T23:14:19.342Z,40.92
2022-11-30T23:16:49.183Z,41.63
2022-11-30T23:19:16.625Z,41.90
2022-11-30T23:21:47.763Z,38.85
2022-11-30T23:24:17.533Z,45.20
2022-11-30T23:26:44.567Z,41.25
2022-11-30T23:29:14.344Z,43.00
2022-11-30T23:31:45.886Z,41.85
2022-11-30T23:34:20.424Z,41.67
2022-11-30T23:36:47.568Z,42.10
2022-11-30T23:39:16.815Z,41.80
2022-11-30T23:41:45.197Z,47.80
2022-11-30T23:44:12.958Z,43.65
2022-11-30T23:46:40.405Z,48.03
2022-11-30T23:49:08.425Z,44.58
2022-11-30T23:51:35.873Z,45.85
2022-11-30T23:54:04.192Z,46.33
2022-11-30T23:56:32.544Z,46.58
2022-11-30T23:59:01.288Z,45.80
